Terminal Aerodrome Forecast
Issued by NWS

Home | Current Version | Previous Version | Text Only | Print | Product List | Glossary Off
Versions: 1 2 3 4 5 6 7 8 9 10 11 12 13 14 15 16 17 18 19 20

000
FTUS41 KCLE 090300 AAA
TAFFDY
TAF AMD
KFDY 090308Z 0903/0924 28012KT 4SM -SHRA OVC040
     FM090600 27010KT P6SM BKN040
     FM090900 25005KT 3SM BR SCT030
     FM091500 30010KT P6SM BKN040=

USA.gov is the U.S. government's official web portal to all federal, state and local government web resources and services.